createdAt,value
2022-10-20T00:01:16.880Z,1.68
2022-10-20T00:03:46.165Z,1.69
2022-10-20T00:06:19.173Z,1.69
2022-10-20T00:08:47.875Z,1.68
2022-10-20T00:11:18.327Z,1.64
2022-10-20T00:13:48.549Z,1.59
2022-10-20T00:16:17.191Z,1.52
2022-10-20T00:18:45.483Z,1.47
2022-10-20T00:21:17.363Z,1.43
2022-10-20T00:23:45.740Z,1.39
2022-10-20T00:26:20.007Z,1.37
2022-10-20T00:28:48.174Z,1.39
2022-10-20T00:31:21.434Z,1.41
2022-10-20T00:34:03.775Z,1.43
2022-10-20T00:36:31.951Z,1.46
2022-10-20T00:39:01.733Z,1.47
2022-10-20T00:41:30.520Z,1.47
2022-10-20T00:44:36.551Z,1.45
2022-10-20T00:47:04.694Z,1.44
2022-10-20T00:49:32.919Z,1.42
2022-10-20T00:52:00.930Z,1.41
2022-10-20T00:54:29.121Z,1.41
2022-10-20T00:56:59.250Z,1.42
2022-10-20T00:59:31.832Z,1.43
2022-10-20T01:02:02.478Z,1.42
2022-10-20T01:04:32.143Z,1.39
2022-10-20T01:07:00.493Z,1.36
2022-10-20T01:09:28.972Z,1.32
2022-10-20T01:12:20.030Z,1.29
2022-10-20T01:14:48.200Z,1.27
2022-10-20T01:17:46.947Z,1.23
2022-10-20T01:20:36.964Z,1.20
2022-10-20T01:23:25.000Z,1.19
2022-10-20T01:26:22.009Z,1.16
2022-10-20T01:28:58.926Z,1.14
2022-10-20T01:31:35.265Z,1.12
2022-10-20T01:34:18.566Z,1.08
2022-10-20T01:36:55.765Z,1.06
2022-10-20T01:39:27.174Z,1.04
2022-10-20T01:42:07.667Z,1.02
2022-10-20T01:44:38.941Z,0.96
2022-10-20T01:47:10.010Z,0.93
2022-10-20T01:49:38.171Z,0.92
2022-10-20T01:52:06.490Z,0.90
2022-10-20T01:54:34.888Z,0.87
2022-10-20T01:57:12.248Z,0.84
2022-10-20T01:59:42.891Z,0.81
2022-10-20T02:03:25.560Z,0.80
2022-10-20T02:06:19.608Z,0.79
2022-10-20T02:10:28.066Z,0.79
2022-10-20T02:13:00.933Z,0.76
2022-10-20T02:15:31.860Z,0.72
2022-10-20T02:18:03.701Z,0.65
2022-10-20T02:20:32.852Z,0.63
2022-10-20T02:23:05.014Z,0.61
2022-10-20T02:25:34.071Z,0.60
2022-10-20T02:28:04.050Z,0.59
2022-10-20T02:30:32.886Z,0.58
2022-10-20T02:33:01.434Z,0.57
2022-10-20T02:35:31.551Z,0.57
2022-10-20T02:38:00.175Z,0.56
2022-10-20T02:40:28.502Z,0.55
2022-10-20T02:42:56.555Z,0.55
2022-10-20T02:45:24.636Z,0.53
2022-10-20T02:47:52.696Z,0.48
2022-10-20T02:50:20.763Z,0.45
2022-10-20T02:52:48.729Z,0.44
2022-10-20T02:57:49.869Z,0.43
2022-10-20T03:00:18.006Z,0.42
2022-10-20T03:02:46.135Z,0.35
2022-10-20T03:05:14.664Z,0.25
2022-10-20T03:07:42.772Z,0.20
2022-10-20T03:10:10.747Z,0.17
2022-10-20T03:12:38.835Z,0.16
2022-10-20T03:15:07.501Z,0.15
2022-10-20T03:17:35.703Z,0.15
2022-10-20T03:20:04.973Z,0.17
2022-10-20T03:22:33.065Z,0.20
2022-10-20T03:25:01.035Z,0.22
2022-10-20T03:27:29.084Z,0.23
2022-10-20T03:29:57.227Z,0.24
2022-10-20T03:32:25.503Z,0.21
2022-10-20T03:34:53.550Z,0.20
2022-10-20T03:37:21.835Z,0.18
2022-10-20T03:39:49.799Z,0.17
2022-10-20T03:42:18.155Z,0.16
2022-10-20T03:44:46.497Z,0.16
2022-10-20T03:47:14.481Z,0.16
2022-10-20T03:49:42.661Z,0.16
2022-10-20T03:52:10.790Z,0.13
2022-10-20T03:54:40.831Z,0.11
2022-10-20T03:57:08.944Z,0.07
2022-10-20T03:59:37.315Z,0.03
2022-10-20T04:02:05.475Z,0.00
2022-10-20T04:04:33.766Z,-0.03
2022-10-20T04:07:02.214Z,-0.04
2022-10-20T04:09:30.452Z,-0.04
2022-10-20T04:11:58.402Z,-0.05
2022-10-20T04:14:26.556Z,-0.03
2022-10-20T04:16:54.509Z,-0.04
2022-10-20T04:19:22.620Z,-0.04
2022-10-20T04:21:51.144Z,-0.04
2022-10-20T04:24:19.276Z,-0.06
2022-10-20T04:29:22.120Z,-0.14
2022-10-20T04:31:50.330Z,-0.18
2022-10-20T04:34:18.300Z,-0.18
2022-10-20T04:36:46.536Z,-0.19
2022-10-20T04:39:14.822Z,-0.19
2022-10-20T04:41:43.038Z,-0.20
2022-10-20T04:44:11.166Z,-0.20
2022-10-20T04:46:39.422Z,-0.21
2022-10-20T04:49:07.797Z,-0.24
2022-10-20T04:51:36.387Z,-0.28
2022-10-20T04:56:33.637Z,-0.33
2022-10-20T04:59:01.775Z,-0.34
2022-10-20T05:01:31.525Z,-0.34
2022-10-20T05:03:59.550Z,-0.33
2022-10-20T05:06:32.825Z,-0.34
2022-10-20T05:09:03.370Z,-0.34
2022-10-20T05:11:35.350Z,-0.35
2022-10-20T05:14:04.178Z,-0.40
2022-10-20T05:16:32.282Z,-0.44
2022-10-20T05:19:00.715Z,-0.48
2022-10-20T05:21:31.222Z,-0.49
2022-10-20T05:24:01.950Z,-0.51
2022-10-20T05:26:34.731Z,-0.51
2022-10-20T05:29:07.757Z,-0.50
2022-10-20T05:31:41.370Z,-0.48
2022-10-20T05:34:11.094Z,-0.46
2022-10-20T05:36:39.252Z,-0.44
2022-10-20T05:39:07.232Z,-0.41
2022-10-20T05:41:38.706Z,-0.39
2022-10-20T05:44:11.724Z,-0.35
2022-10-20T05:46:41.933Z,-0.33
2022-10-20T05:49:14.178Z,-0.31
2022-10-20T05:51:42.624Z,-0.24
2022-10-20T05:54:12.794Z,-0.15
2022-10-20T05:56:41.419Z,-0.06
2022-10-20T05:59:10.520Z,0.03
2022-10-20T06:01:41.285Z,0.10
2022-10-20T06:04:09.304Z,0.19
2022-10-20T06:06:37.671Z,0.24
2022-10-20T06:09:07.850Z,0.27
2022-10-20T06:11:39.237Z,0.33
2022-10-20T06:14:09.753Z,0.32
2022-10-20T06:16:38.569Z,0.35
2022-10-20T06:19:07.307Z,0.43
2022-10-20T06:21:36.967Z,0.57
2022-10-20T06:24:06.010Z,0.72
2022-10-20T06:26:36.779Z,0.81
2022-10-20T06:29:07.180Z,0.91
2022-10-20T06:31:39.182Z,0.95
2022-10-20T06:34:10.004Z,1.00
2022-10-20T06:36:40.006Z,1.06
2022-10-20T06:39:12.660Z,1.12
2022-10-20T06:41:42.534Z,1.27
2022-10-20T06:44:12.904Z,1.45
2022-10-20T06:46:41.116Z,1.55
2022-10-20T06:49:11.642Z,1.61
2022-10-20T06:51:39.813Z,1.69
2022-10-20T06:54:08.059Z,1.82
2022-10-20T06:56:37.242Z,2.01
2022-10-20T06:59:05.782Z,2.14
2022-10-20T07:01:36.389Z,2.31
2022-10-20T07:04:07.292Z,2.46
2022-10-20T07:06:39.419Z,2.65
2022-10-20T07:09:09.423Z,2.87
2022-10-20T07:11:37.602Z,3.05
2022-10-20T07:14:05.962Z,3.17
2022-10-20T07:16:35.046Z,3.28
2022-10-20T07:19:05.214Z,3.40
2022-10-20T07:21:37.301Z,3.53
2022-10-20T07:24:07.325Z,3.66
2022-10-20T07:26:39.197Z,3.81
2022-10-20T07:29:07.456Z,3.97
2022-10-20T07:31:41.828Z,4.14
2022-10-20T07:34:28.129Z,4.33
2022-10-20T07:36:57.647Z,4.50
2022-10-20T07:39:26.779Z,4.64
2022-10-20T07:41:54.879Z,4.79
2022-10-20T07:44:23.297Z,4.90
2022-10-20T07:46:51.774Z,5.06
2022-10-20T07:52:08.063Z,5.35
2022-10-20T07:54:36.286Z,5.52
2022-10-20T07:57:04.421Z,5.71
2022-10-20T07:59:32.690Z,5.90
2022-10-20T08:02:00.928Z,6.04
2022-10-20T08:04:31.654Z,6.20
2022-10-20T08:07:00.473Z,6.38
2022-10-20T08:09:28.714Z,6.55
2022-10-20T08:11:56.832Z,6.69
2022-10-20T08:14:27.523Z,6.80
2022-10-20T08:17:02.225Z,6.89
2022-10-20T08:19:39.030Z,6.97
2022-10-20T08:22:07.033Z,7.05
2022-10-20T08:24:35.724Z,7.12
2022-10-20T08:27:03.989Z,7.22
2022-10-20T08:29:32.502Z,7.33
2022-10-20T08:32:00.731Z,7.45
2022-10-20T08:34:28.749Z,7.52
2022-10-20T08:36:56.775Z,7.62
2022-10-20T08:39:25.349Z,7.76
2022-10-20T08:42:07.484Z,7.85
2022-10-20T08:44:40.531Z,7.93
2022-10-20T08:47:33.657Z,8.00
2022-10-20T08:50:09.557Z,8.11
2022-10-20T08:52:40.692Z,8.14
2022-10-20T08:55:19.268Z,8.17
2022-10-20T08:57:49.336Z,8.29
2022-10-20T09:00:22.958Z,8.45
2022-10-20T09:02:51.380Z,8.61
2022-10-20T09:05:24.940Z,8.77
2022-10-20T09:07:54.931Z,8.89
2022-10-20T09:10:33.929Z,8.97
2022-10-20T09:13:03.326Z,8.93
2022-10-20T09:15:32.210Z,8.86
2022-10-20T09:18:06.509Z,8.91
2022-10-20T09:20:51.176Z,9.00
2022-10-20T09:23:39.858Z,9.09
2022-10-20T09:26:24.947Z,8.95
2022-10-20T09:29:15.165Z,8.91
2022-10-20T09:31:49.918Z,8.95
2022-10-20T09:34:30.237Z,8.91
2022-10-20T09:37:04.701Z,8.78
2022-10-20T09:39:42.900Z,8.77
2022-10-20T09:42:18.605Z,8.90
2022-10-20T09:44:53.589Z,8.99
2022-10-20T09:47:24.202Z,9.07
2022-10-20T09:50:00.898Z,9.10
2022-10-20T09:52:35.018Z,9.03
2022-10-20T09:55:16.419Z,9.07
2022-10-20T09:57:48.920Z,9.16
2022-10-20T10:00:37.281Z,9.20
2022-10-20T10:03:10.313Z,9.28
2022-10-20T10:05:38.386Z,9.38
2022-10-20T10:08:14.177Z,9.47
2022-10-20T10:10:45.194Z,9.55
2022-10-20T10:13:26.512Z,9.62
2022-10-20T10:16:04.127Z,9.67
2022-10-20T10:18:32.983Z,9.74
2022-10-20T10:21:14.354Z,9.87
2022-10-20T10:24:11.503Z,9.99
2022-10-20T10:26:46.245Z,10.11
2022-10-20T10:29:28.643Z,10.20
2022-10-20T10:32:24.933Z,10.29
2022-10-20T10:35:11.888Z,10.35
2022-10-20T10:37:43.281Z,10.23
2022-10-20T10:40:22.346Z,10.12
2022-10-20T10:42:59.651Z,10.13
2022-10-20T10:45:46.021Z,10.19
2022-10-20T10:50:54.185Z,10.29
2022-10-20T10:53:49.451Z,10.36
2022-10-20T10:56:42.422Z,10.43
2022-10-20T10:59:23.365Z,10.38
2022-10-20T11:02:14.188Z,10.43
2022-10-20T11:05:13.076Z,10.35
2022-10-20T11:10:25.419Z,10.13
2022-10-20T11:13:16.296Z,10.12
2022-10-20T11:16:16.856Z,10.00
2022-10-20T11:18:44.944Z,9.88
2022-10-20T11:21:29.195Z,9.79
2022-10-20T11:24:21.049Z,9.67
2022-10-20T11:26:54.648Z,9.62
2022-10-20T11:30:05.361Z,9.57
2022-10-20T11:32:51.082Z,9.58
2022-10-20T11:35:28.123Z,9.74
2022-10-20T11:38:21.001Z,9.92
2022-10-20T11:40:55.248Z,10.07
2022-10-20T11:43:32.699Z,10.15
2022-10-20T11:46:08.282Z,10.22
2022-10-20T11:48:50.918Z,10.23
2022-10-20T11:51:28.246Z,10.18
2022-10-20T11:54:14.627Z,10.09
2022-10-20T11:57:04.454Z,9.99
2022-10-20T11:59:44.627Z,9.99
2022-10-20T12:02:19.221Z,10.04
2022-10-20T12:05:05.895Z,10.03
2022-10-20T12:07:51.536Z,10.02
2022-10-20T12:10:35.152Z,10.00
2022-10-20T12:13:30.405Z,9.99
2022-10-20T12:15:58.865Z,10.04
2022-10-20T12:18:28.860Z,10.06
2022-10-20T12:21:02.358Z,10.09
2022-10-20T12:23:42.778Z,10.07
2022-10-20T12:26:29.644Z,10.06
2022-10-20T12:28:58.412Z,10.04
2022-10-20T12:32:05.018Z,10.04
2022-10-20T12:34:41.961Z,9.99
2022-10-20T12:37:30.315Z,9.91
2022-10-20T12:40:07.448Z,9.82
2022-10-20T12:42:48.944Z,9.69
2022-10-20T12:45:20.002Z,9.64
2022-10-20T12:47:50.162Z,9.63
2022-10-20T12:50:34.228Z,9.66
2022-10-20T12:53:17.494Z,9.67
2022-10-20T12:55:54.133Z,9.65
2022-10-20T12:58:22.504Z,9.66
2022-10-20T13:00:50.824Z,9.64
2022-10-20T13:03:39.540Z,9.63
2022-10-20T13:06:30.240Z,9.62
2022-10-20T13:09:21.383Z,9.60
2022-10-20T13:12:00.958Z,9.57
2022-10-20T13:14:44.520Z,9.53
2022-10-20T13:17:20.503Z,9.51
2022-10-20T13:20:01.480Z,9.51
2022-10-20T13:22:46.813Z,9.52
2022-10-20T13:25:33.999Z,9.50
2022-10-20T13:28:12.387Z,9.48
2022-10-20T13:30:59.953Z,9.46
2022-10-20T13:34:02.519Z,9.43
2022-10-20T13:37:01.319Z,9.41
2022-10-20T13:39:51.269Z,9.38
2022-10-20T13:42:31.532Z,9.33
2022-10-20T13:45:24.635Z,9.29
2022-10-20T13:48:08.354Z,9.25
2022-10-20T13:50:43.166Z,9.21
2022-10-20T13:53:26.201Z,9.18
2022-10-20T13:55:57.036Z,9.14
2022-10-20T13:58:26.047Z,9.12
2022-10-20T14:01:06.545Z,9.12
2022-10-20T14:03:43.517Z,9.08
2022-10-20T14:06:27.136Z,9.05
2022-10-20T14:08:56.840Z,9.03
2022-10-20T14:11:31.492Z,9.01
2022-10-20T14:14:01.995Z,8.99
2022-10-20T14:16:32.011Z,8.96
2022-10-20T14:19:09.405Z,8.95
2022-10-20T14:21:46.907Z,8.93
2022-10-20T14:24:30.674Z,8.89
2022-10-20T14:27:00.761Z,8.84
2022-10-20T14:29:35.169Z,8.83
2022-10-20T14:32:05.062Z,8.79
2022-10-20T14:34:36.867Z,8.77
2022-10-20T14:37:20.343Z,8.76
2022-10-20T14:39:50.787Z,8.74
2022-10-20T14:42:31.421Z,8.70
2022-10-20T14:45:02.682Z,8.64
2022-10-20T14:47:49.672Z,8.61
2022-10-20T14:50:24.016Z,8.58
2022-10-20T14:52:54.218Z,8.52
2022-10-20T14:55:39.767Z,8.47
2022-10-20T14:58:35.202Z,8.42
2022-10-20T15:01:29.332Z,8.33
2022-10-20T15:04:27.149Z,8.25
2022-10-20T15:07:13.649Z,8.18
2022-10-20T15:09:52.310Z,8.12
2022-10-20T15:12:24.579Z,8.07
2022-10-20T15:15:02.605Z,8.00
2022-10-20T15:17:40.286Z,7.93
2022-10-20T15:20:30.625Z,7.85
2022-10-20T15:23:16.815Z,7.78
2022-10-20T15:25:56.078Z,7.69
2022-10-20T15:28:40.615Z,7.61
2022-10-20T15:31:22.243Z,7.52
2022-10-20T15:33:51.744Z,7.39
2022-10-20T15:36:29.164Z,7.26
2022-10-20T15:38:57.771Z,7.11
2022-10-20T15:41:28.663Z,7.03
2022-10-20T15:44:02.617Z,6.94
2022-10-20T15:46:30.792Z,6.86
2022-10-20T15:48:58.911Z,6.79
2022-10-20T15:51:29.330Z,6.71
2022-10-20T15:53:58.579Z,6.62
2022-10-20T15:56:26.654Z,6.52
2022-10-20T15:58:54.964Z,6.43
2022-10-20T16:01:23.359Z,6.35
2022-10-20T16:03:51.552Z,6.26
2022-10-20T16:06:19.961Z,6.18
2022-10-20T16:08:50.104Z,6.10
2022-10-20T16:11:20.825Z,6.02
2022-10-20T16:13:49.295Z,5.94
2022-10-20T16:16:21.106Z,5.85
2022-10-20T16:18:49.370Z,5.78
2022-10-20T16:21:17.675Z,5.73
2022-10-20T16:23:45.792Z,5.68
2022-10-20T16:26:15.325Z,5.62
2022-10-20T16:28:44.383Z,5.54
2022-10-20T16:31:14.368Z,5.47
2022-10-20T16:33:43.325Z,5.38
2022-10-20T16:36:15.153Z,5.29
2022-10-20T16:38:43.777Z,5.23
2022-10-20T16:41:15.192Z,5.18
2022-10-20T16:43:45.466Z,5.12
2022-10-20T16:46:15.932Z,5.06
2022-10-20T16:48:47.702Z,5.00
2022-10-20T16:51:17.603Z,4.94
2022-10-20T16:53:45.676Z,4.89
2022-10-20T16:56:16.634Z,4.83
2022-10-20T16:58:48.642Z,4.78
2022-10-20T17:01:19.290Z,4.71
2022-10-20T17:03:49.429Z,4.65
2022-10-20T17:06:20.244Z,4.60
2022-10-20T17:08:48.575Z,4.56
2022-10-20T17:11:19.873Z,4.54
2022-10-20T17:13:48.497Z,4.49
2022-10-20T17:16:28.474Z,4.44
2022-10-20T17:18:59.068Z,4.42
2022-10-20T17:21:28.361Z,4.39
2022-10-20T17:23:56.982Z,4.34
2022-10-20T17:26:27.939Z,4.31
2022-10-20T17:28:57.806Z,4.26
2022-10-20T17:31:26.775Z,4.20
2022-10-20T17:33:56.457Z,4.15
2022-10-20T17:36:26.766Z,4.08
2022-10-20T17:38:57.704Z,4.03
2022-10-20T17:41:26.554Z,3.98
2022-10-20T17:43:54.860Z,3.94
2022-10-20T17:46:23.090Z,3.94
2022-10-20T17:48:51.152Z,3.96
2022-10-20T17:51:31.804Z,3.95
2022-10-20T17:54:04.179Z,3.89
2022-10-20T17:56:38.360Z,3.84
2022-10-20T17:59:08.720Z,3.80
2022-10-20T18:01:39.381Z,3.76
2022-10-20T18:04:13.207Z,3.73
2022-10-20T18:06:42.595Z,3.69
2022-10-20T18:09:14.061Z,3.66
2022-10-20T18:11:51.844Z,3.63
2022-10-20T18:14:20.108Z,3.61
2022-10-20T18:16:48.333Z,3.58
2022-10-20T18:19:18.700Z,3.53
2022-10-20T18:21:47.527Z,3.48
2022-10-20T18:24:17.530Z,3.41
2022-10-20T18:26:46.714Z,3.30
2022-10-20T18:29:16.432Z,3.24
2022-10-20T18:31:46.098Z,3.18
2022-10-20T18:34:23.495Z,3.13
2022-10-20T18:36:54.769Z,3.11
2022-10-20T18:39:23.413Z,3.10
2022-10-20T18:41:52.626Z,3.08
2022-10-20T18:44:21.047Z,3.06
2022-10-20T18:46:49.728Z,3.02
2022-10-20T18:49:21.233Z,2.97
2022-10-20T18:51:53.114Z,2.92
2022-10-20T18:54:23.379Z,2.89
2022-10-20T18:56:51.801Z,2.91
2022-10-20T18:59:20.458Z,2.95
2022-10-20T19:01:48.923Z,2.99
2022-10-20T19:04:19.768Z,3.04
2022-10-20T19:06:48.946Z,3.03
2022-10-20T19:09:20.127Z,3.06
2022-10-20T19:14:18.381Z,3.13
2022-10-20T19:16:47.157Z,3.14
2022-10-20T19:19:16.405Z,3.13
2022-10-20T19:21:45.359Z,3.14
2022-10-20T19:24:18.182Z,3.12
2022-10-20T19:26:57.244Z,3.13
2022-10-20T19:29:36.757Z,3.14
2022-10-20T19:32:06.377Z,3.14
2022-10-20T19:34:37.597Z,3.13
2022-10-20T19:37:06.552Z,3.11
2022-10-20T19:39:38.896Z,3.10
2022-10-20T19:42:08.311Z,3.08
2022-10-20T19:44:36.605Z,3.06
2022-10-20T19:47:06.284Z,3.02
2022-10-20T19:49:34.859Z,2.97
2022-10-20T19:52:04.339Z,2.92
2022-10-20T19:54:32.543Z,2.87
2022-10-20T19:57:00.631Z,2.82
2022-10-20T19:59:29.037Z,2.77
2022-10-20T20:01:57.319Z,2.73
2022-10-20T20:04:25.466Z,2.72
2022-10-20T20:06:56.253Z,2.69
2022-10-20T20:09:29.562Z,2.68
2022-10-20T20:11:58.410Z,2.66
2022-10-20T20:14:26.514Z,2.64
2022-10-20T20:16:54.646Z,2.61
2022-10-20T20:19:22.787Z,2.58
2022-10-20T20:21:50.824Z,2.55
2022-10-20T20:24:19.142Z,2.52
2022-10-20T20:26:47.353Z,2.50
2022-10-20T20:29:15.389Z,2.48
2022-10-20T20:31:43.906Z,2.47
2022-10-20T20:34:11.934Z,2.46
2022-10-20T20:36:39.971Z,2.46
2022-10-20T20:39:09.921Z,2.46
2022-10-20T20:41:38.219Z,2.46
2022-10-20T20:44:08.438Z,2.46
2022-10-20T20:46:37.201Z,2.46
2022-10-20T20:49:05.541Z,2.46
2022-10-20T20:51:34.097Z,2.44
2022-10-20T20:54:04.099Z,2.44
2022-10-20T20:56:32.423Z,2.40
2022-10-20T20:59:00.546Z,2.39
2022-10-20T21:01:34.083Z,2.38
2022-10-20T21:04:05.039Z,2.37
2022-10-20T21:06:49.536Z,2.37
2022-10-20T21:09:21.819Z,2.38
2022-10-20T21:11:49.963Z,2.38
2022-10-20T21:14:18.021Z,2.37
2022-10-20T21:16:46.608Z,2.36
2022-10-20T21:19:14.859Z,2.34
2022-10-20T21:21:47.253Z,2.32
2022-10-20T21:24:15.743Z,2.28
2022-10-20T21:26:43.989Z,2.25
2022-10-20T21:29:12.084Z,2.21
2022-10-20T21:31:40.931Z,2.19
2022-10-20T21:34:10.288Z,2.17
2022-10-20T21:36:40.270Z,2.16
2022-10-20T21:39:12.090Z,2.16
2022-10-20T21:41:40.389Z,2.16
2022-10-20T21:44:09.454Z,2.15
2022-10-20T21:46:42.319Z,2.14
2022-10-20T21:49:13.333Z,2.13
2022-10-20T21:51:45.595Z,2.13
2022-10-20T21:54:16.577Z,2.11
2022-10-20T21:56:46.975Z,2.11
2022-10-20T21:59:19.047Z,2.07
2022-10-20T22:01:48.929Z,2.04
2022-10-20T22:04:23.736Z,2.00
2022-10-20T22:06:52.124Z,2.00
2022-10-20T22:09:21.258Z,1.99
2022-10-20T22:11:52.399Z,2.00
2022-10-20T22:14:20.724Z,2.01
2022-10-20T22:16:48.862Z,2.02
2022-10-20T22:19:22.455Z,2.01
2022-10-20T22:21:52.533Z,1.99
2022-10-20T22:24:21.435Z,1.99
2022-10-20T22:26:51.863Z,1.97
2022-10-20T22:29:21.400Z,1.95
2022-10-20T22:31:50.150Z,1.95
2022-10-20T22:34:18.175Z,1.98
2022-10-20T22:36:46.728Z,1.98
2022-10-20T22:39:15.096Z,1.99
2022-10-20T22:41:43.542Z,2.01
2022-10-20T22:44:12.118Z,2.02
2022-10-20T22:46:40.124Z,2.02
2022-10-20T22:49:08.511Z,2.03
2022-10-20T22:51:36.696Z,2.03
2022-10-20T22:54:04.921Z,2.02
2022-10-20T22:56:32.985Z,2.01
2022-10-20T22:59:01.177Z,1.99
2022-10-20T23:01:29.409Z,1.98
2022-10-20T23:03:57.619Z,1.96
2022-10-20T23:06:26.526Z,1.96
2022-10-20T23:08:56.270Z,1.97
2022-10-20T23:11:24.888Z,1.97
2022-10-20T23:13:53.710Z,1.99
2022-10-20T23:16:22.079Z,1.99
2022-10-20T23:18:50.203Z,1.99
2022-10-20T23:21:18.879Z,2.00
2022-10-20T23:23:46.984Z,1.98
2022-10-20T23:26:15.288Z,1.96
2022-10-20T23:28:43.435Z,1.94
2022-10-20T23:31:13.733Z,1.93
2022-10-20T23:33:43.247Z,1.93
2022-10-20T23:36:13.125Z,1.94
2022-10-20T23:38:42.583Z,1.93
2022-10-20T23:41:10.856Z,1.92
2022-10-20T23:43:39.022Z,1.91
2022-10-20T23:46:07.885Z,1.89
2022-10-20T23:48:36.282Z,1.86
2022-10-20T23:51:06.011Z,1.83
2022-10-20T23:53:35.015Z,1.82
2022-10-20T23:56:03.818Z,1.82
2022-10-20T23:58:31.976Z,1.81
